Time;durP1;ratioP1;P1;durP2;ratioP2;P2;SDS_P1;SDS_P2;PMS_P1;PMS_P2;Temp;Humidity;BMP_temperature;BMP_pressure;BME280_temperature;BME280_humidity;BME280_pressure;Samples;Min_cycle;Max_cycle;Signal;HPM_P1;HPM_P2
2021/11/23 00:01:49;;;;;;;25.80;17.48;;;;;;;2.56;100.00;99469.91;2173181;82;20974;-83
2021/11/23 00:04:50;;;;;;;27.82;15.85;;;;;;;2.54;100.00;99467.45;2173021;82;21025;-83
2021/11/23 00:07:51;;;;;;;26.57;16.75;;;;;;;2.49;100.00;99482.48;2173205;82;21012;-83
2021/11/23 00:10:52;;;;;;;28.12;15.68;;;;;;;2.48;100.00;99489.05;2173212;82;21056;-83
2021/11/23 00:13:53;;;;;;;25.20;16.35;;;;;;;2.46;100.00;99490.43;2173202;82;21505;-83
2021/11/23 00:16:53;;;;;;;26.55;17.20;;;;;;;2.38;100.00;99486.30;2173149;82;20926;-84
2021/11/23 00:19:54;;;;;;;31.35;18.50;;;;;;;2.40;100.00;99490.06;2173159;82;21107;-83
2021/11/23 00:22:55;;;;;;;25.77;16.77;;;;;;;2.40;100.00;99493.47;2173216;82;20993;-82
2021/11/23 00:25:56;;;;;;;25.90;16.15;;;;;;;2.42;100.00;99494.66;2173407;82;20997;-83
2021/11/23 00:28:57;;;;;;;26.30;16.75;;;;;;;2.40;100.00;99502.52;2169096;82;20974;-83
2021/11/23 00:31:58;;;;;;;25.37;16.05;;;;;;;2.40;100.00;99499.11;2163280;82;21085;-84
2021/11/23 00:34:59;;;;;;;21.37;14.68;;;;;;;2.41;100.00;99505.46;2163037;82;21109;-83
2021/11/23 00:38:01;;;;;;;27.35;16.10;;;;;;;2.43;100.00;99507.46;2163440;82;21587;-83
2021/11/23 00:41:02;;;;;;;23.73;16.00;;;;;;;2.43;100.00;99510.05;2163242;82;20969;-83
2021/11/23 00:44:02;;;;;;;26.12;15.50;;;;;;;2.45;100.00;99520.27;2163364;82;21033;-83
2021/11/23 00:47:03;;;;;;;28.75;17.27;;;;;;;2.45;100.00;99515.10;2163336;82;21492;-83
2021/11/23 00:50:04;;;;;;;20.15;14.73;;;;;;;2.50;100.00;99507.39;2163356;82;20985;-83
2021/11/23 00:53:05;;;;;;;25.48;15.60;;;;;;;2.53;100.00;99516.68;2163209;82;20957;-83
2021/11/23 00:56:06;;;;;;;24.85;16.15;;;;;;;2.54;100.00;99501.52;2163516;82;21591;-83
2021/11/23 00:59:07;;;;;;;23.35;15.10;;;;;;;2.59;100.00;99511.08;2163445;82;21016;-83
2021/11/23 01:02:07;;;;;;;25.12;15.05;;;;;;;2.61;100.00;99507.09;2163301;82;20930;-83
2021/11/23 01:05:08;;;;;;;27.73;16.17;;;;;;;2.65;100.00;99508.51;2163198;82;21044;-83
2021/11/23 01:08:09;;;;;;;20.27;15.45;;;;;;;2.65;100.00;99502.05;2163140;82;21009;-83
2021/11/23 01:11:10;;;;;;;24.72;15.55;;;;;;;2.66;100.00;99498.08;2163134;82;21085;-83
2021/11/23 01:14:11;;;;;;;24.43;15.80;;;;;;;2.73;100.00;99501.03;2163317;82;20970;-83
2021/11/23 01:17:14;;;;;;;22.90;15.98;;;;;;;2.73;100.00;99501.03;2163329;82;21095;-83
2021/11/23 01:20:15;;;;;;;24.52;16.07;;;;;;;2.78;100.00;99502.36;2163608;82;20993;-83
2021/11/23 01:23:16;;;;;;;22.82;13.53;;;;;;;2.77;100.00;99505.88;2163423;82;21029;-83
2021/11/23 01:26:16;;;;;;;26.87;16.00;;;;;;;2.76;100.00;99496.95;2163275;82;21045;-83
2021/11/23 01:29:17;;;;;;;27.40;16.00;;;;;;;2.73;100.00;99503.14;2167088;82;21077;-83
2021/11/23 01:32:18;;;;;;;24.77;15.40;;;;;;;2.71;100.00;99502.44;2173370;82;20989;-82
2021/11/23 01:35:20;;;;;;;25.60;16.32;;;;;;;2.72;100.00;99501.50;2173053;82;21041;-83
2021/11/23 01:38:21;;;;;;;24.55;16.48;;;;;;;2.75;100.00;99492.72;2173120;82;20977;-83
2021/11/23 01:41:23;;;;;;;28.67;17.40;;;;;;;2.77;100.00;99494.25;2173102;82;21032;-83
2021/11/23 01:44:24;;;;;;;27.30;16.80;;;;;;;2.80;100.00;99486.73;2173074;82;21053;-83
2021/11/23 01:47:25;;;;;;;25.70;16.02;;;;;;;2.85;100.00;99487.23;2173187;82;21010;-84
2021/11/23 01:50:26;;;;;;;31.30;16.65;;;;;;;2.89;100.00;99488.64;2173115;82;21493;-83
2021/11/23 01:53:27;;;;;;;21.95;15.50;;;;;;;2.91;100.00;99491.11;2173041;82;21005;-83
2021/11/23 01:56:28;;;;;;;24.98;15.75;;;;;;;2.90;100.00;99494.17;2173019;82;20981;-83
2021/11/23 01:59:28;;;;;;;28.35;16.77;;;;;;;2.87;100.00;99485.81;2173238;82;21000;-83
2021/11/23 02:02:29;;;;;;;25.88;16.82;;;;;;;2.90;100.00;99494.64;2172991;82;21033;-83
2021/11/23 02:05:30;;;;;;;26.00;16.37;;;;;;;2.93;100.00;99493.97;2173000;82;21019;-83
2021/11/23 02:08:31;;;;;;;23.18;15.80;;;;;;;2.90;100.00;99492.05;2173014;82;20942;-83
2021/11/23 02:11:32;;;;;;;26.10;17.10;;;;;;;2.92;100.00;99496.64;2173347;82;21092;-83
2021/11/23 02:14:33;;;;;;;24.98;16.10;;;;;;;2.95;100.00;99497.26;2173321;82;21476;-83
2021/11/23 02:17:34;;;;;;;24.87;15.95;;;;;;;3.02;100.00;99503.64;2173324;82;21326;-83
2021/11/23 02:20:34;;;;;;;20.60;14.03;;;;;;;3.00;100.00;99496.91;2173258;82;21568;-83
2021/11/23 02:23:35;;;;;;;28.40;17.12;;;;;;;2.95;100.00;99504.20;2173483;82;20962;-83
2021/11/23 02:26:36;;;;;;;23.50;15.95;;;;;;;2.93;100.00;99508.19;2173141;82;21108;-83
2021/11/23 02:29:37;;;;;;;22.85;15.20;;;;;;;2.96;100.00;99508.43;2173266;82;21512;-84
2021/11/23 02:32:38;;;;;;;27.17;16.30;;;;;;;2.93;100.00;99505.61;2173141;82;21338;-83
2021/11/23 02:35:38;;;;;;;26.57;15.60;;;;;;;2.94;100.00;99516.31;2173345;82;21564;-84
2021/11/23 02:38:39;;;;;;;23.60;15.70;;;;;;;2.96;100.00;99515.72;2173360;82;20966;-84
2021/11/23 02:41:40;;;;;;;22.55;15.98;;;;;;;2.92;100.00;99512.16;2173240;82;21060;-83
2021/11/23 02:44:41;;;;;;;25.50;16.67;;;;;;;2.91;100.00;99515.22;2172803;82;21525;-84
2021/11/23 02:47:42;;;;;;;23.27;15.85;;;;;;;2.89;100.00;99518.39;2173345;82;21040;-84
2021/11/23 02:50:47;;;;;;;25.40;14.60;;;;;;;2.89;100.00;99517.56;2173553;82;21529;-84
2021/11/23 02:53:46;;;;;;;25.82;15.38;;;;;;;2.83;100.00;99530.47;2172782;82;21632;-83
2021/11/23 02:56:47;;;;;;;22.98;14.63;;;;;;;2.74;100.00;99524.66;2173202;82;20997;-83
2021/11/23 02:59:47;;;;;;;20.20;13.43;;;;;;;2.68;100.00;99532.41;2173264;82;21524;-83
2021/11/23 03:02:48;;;;;;;23.90;15.43;;;;;;;2.64;100.00;99534.84;2173358;82;21036;-83
2021/11/23 03:05:49;;;;;;;19.10;12.78;;;;;;;2.60;100.00;99530.01;2173230;82;20997;-83
2021/11/23 03:08:50;;;;;;;22.42;15.78;;;;;;;2.57;100.00;99531.06;2173347;82;20997;-83
2021/11/23 03:11:51;;;;;;;19.45;13.45;;;;;;;2.55;100.00;99536.78;2173243;82;20977;-84
2021/11/23 03:14:52;;;;;;;19.37;12.98;;;;;;;2.55;100.00;99532.91;2173335;82;21610;-83
2021/11/23 03:17:52;;;;;;;19.05;12.37;;;;;;;2.57;100.00;99532.35;2173132;82;20969;-84
2021/11/23 03:20:53;;;;;;;17.52;11.60;;;;;;;2.58;100.00;99531.41;2173313;82;21490;-83
2021/11/23 03:23:54;;;;;;;18.02;13.08;;;;;;;2.58;100.00;99535.30;2173136;82;20978;-84
2021/11/23 03:26:55;;;;;;;22.77;13.58;;;;;;;2.57;100.00;99528.47;2173218;82;20965;-83
2021/11/23 03:29:56;;;;;;;22.02;13.75;;;;;;;2.62;100.00;99526.84;2173159;82;21345;-83
2021/11/23 03:32:57;;;;;;;18.90;11.80;;;;;;;2.63;100.00;99533.19;2173192;82;21048;-83
2021/11/23 03:35:58;;;;;;;18.85;11.35;;;;;;;2.62;100.00;99530.25;2173243;82;21529;-83
2021/11/23 03:38:59;;;;;;;16.12;11.75;;;;;;;2.62;100.00;99539.77;2173256;82;21008;-83
2021/11/23 03:41:59;;;;;;;17.50;12.18;;;;;;;2.62;100.00;99539.30;2173230;82;21002;-84
2021/11/23 03:45:00;;;;;;;19.30;12.50;;;;;;;2.63;100.00;99540.12;2173142;82;20989;-83
2021/11/23 03:48:01;;;;;;;17.20;12.10;;;;;;;2.64;100.00;99531.42;2173141;82;20957;-83
2021/11/23 03:51:02;;;;;;;16.80;11.08;;;;;;;2.64;100.00;99530.13;2173080;82;21041;-83
2021/11/23 03:54:03;;;;;;;16.90;11.08;;;;;;;2.57;100.00;99518.13;2173225;82;21509;-83
2021/11/23 03:57:04;;;;;;;15.78;11.40;;;;;;;2.59;100.00;99517.55;2173283;82;21315;-85
2021/11/23 04:00:04;;;;;;;16.55;10.60;;;;;;;2.55;100.00;99519.98;2173172;82;21057;-83
2021/11/23 04:03:05;;;;;;;18.37;11.45;;;;;;;2.54;100.00;99519.63;2173247;82;21540;-83
2021/11/23 04:06:06;;;;;;;17.05;11.12;;;;;;;2.52;100.00;99519.73;2173390;82;21031;-82
2021/11/23 04:09:07;;;;;;;18.65;12.43;;;;;;;2.53;100.00;99522.67;2173068;82;21073;-83
2021/11/23 04:12:08;;;;;;;20.15;12.47;;;;;;;2.58;100.00;99531.88;2173897;82;21507;-82
2021/11/23 04:15:09;;;;;;;20.17;11.18;;;;;;;2.51;100.00;99532.30;2173255;82;20974;-82
2021/11/23 04:18:09;;;;;;;14.03;10.10;;;;;;;2.51;100.00;99518.56;2173432;82;21025;-84
2021/11/23 04:21:10;;;;;;;15.72;10.60;;;;;;;2.49;100.00;99517.38;2173258;82;21004;-82
2021/11/23 04:24:11;;;;;;;11.15;8.58;;;;;;;2.51;100.00;99518.56;2173332;82;20926;-83
2021/11/23 04:27:12;;;;;;;17.45;10.68;;;;;;;2.53;100.00;99511.52;2173129;82;21020;-83
2021/11/23 04:30:13;;;;;;;14.80;9.58;;;;;;;2.52;100.00;99510.69;2173128;82;20997;-83
2021/11/23 04:33:14;;;;;;;12.90;10.05;;;;;;;2.55;100.00;99509.63;2173240;82;21025;-84
2021/11/23 04:36:15;;;;;;;18.27;9.98;;;;;;;2.53;100.00;99505.05;2173278;82;21048;-83
2021/11/23 04:39:15;;;;;;;10.75;8.83;;;;;;;2.52;100.00;99512.45;2173235;82;21000;-83
2021/11/23 04:42:16;;;;;;;12.65;9.13;;;;;;;2.49;100.00;99502.34;2173134;82;20989;-83
2021/11/23 04:45:17;;;;;;;12.80;9.05;;;;;;;2.45;100.00;99495.72;2173248;82;21496;-83
2021/11/23 04:48:18;;;;;;;16.65;9.93;;;;;;;2.40;100.00;99498.64;2173142;82;21476;-83
2021/11/23 04:51:19;;;;;;;13.95;9.35;;;;;;;2.38;100.00;99493.20;2173226;82;20994;-83
2021/11/23 04:54:20;;;;;;;13.80;10.55;;;;;;;2.37;100.00;99498.84;2173247;82;20982;-83
2021/11/23 04:57:21;;;;;;;13.78;9.70;;;;;;;2.37;100.00;99502.72;2173119;82;21029;-83
2021/11/23 05:00:22;;;;;;;15.50;10.18;;;;;;;2.38;100.00;99499.22;2173127;82;21004;-84
2021/11/23 05:03:23;;;;;;;14.87;10.53;;;;;;;2.42;100.00;99493.36;2173035;82;21044;-83
2021/11/23 05:06:23;;;;;;;11.28;8.53;;;;;;;2.40;100.00;99492.65;2173173;82;20989;-83
2021/11/23 05:09:24;;;;;;;10.80;8.25;;;;;;;2.38;100.00;99502.25;2173264;82;20993;-84
2021/11/23 05:12:25;;;;;;;12.63;9.55;;;;;;;2.31;100.00;99494.59;2173063;82;21021;-83
2021/11/23 05:15:26;;;;;;;11.63;8.85;;;;;;;2.26;100.00;99495.72;2173139;82;21000;-83
2021/11/23 05:18:27;;;;;;;11.43;8.65;;;;;;;2.22;100.00;99494.30;2173119;82;21036;-83
2021/11/23 05:21:27;;;;;;;13.43;9.40;;;;;;;2.18;100.00;99503.65;2175849;82;20960;-81
2021/11/23 05:24:28;;;;;;;15.25;9.70;;;;;;;2.14;100.00;99509.52;2176324;82;21001;-82
2021/11/23 05:27:29;;;;;;;11.33;9.18;;;;;;;2.09;100.00;99510.28;2174645;82;21529;-83
2021/11/23 05:30:30;;;;;;;10.90;8.90;;;;;;;2.05;100.00;99516.61;2173330;82;20997;-83
2021/11/23 05:33:31;;;;;;;15.15;8.90;;;;;;;2.01;100.00;99508.69;2173071;82;21028;-83
2021/11/23 05:36:31;;;;;;;12.68;9.25;;;;;;;1.95;100.00;99513.83;2173098;82;21029;-83
2021/11/23 05:39:32;;;;;;;14.40;8.73;;;;;;;1.85;100.00;99527.48;2173133;82;20996;-83
2021/11/23 05:42:33;;;;;;;14.38;9.33;;;;;;;1.77;100.00;99520.25;2173330;82;20958;-83
2021/11/23 05:45:34;;;;;;;14.80;9.30;;;;;;;1.73;100.00;99515.39;2173419;82;21063;-83
2021/11/23 05:48:35;;;;;;;12.88;9.73;;;;;;;1.56;100.00;99512.68;2173079;82;21028;-83
2021/11/23 05:51:36;;;;;;;16.67;10.28;;;;;;;1.56;100.00;99512.68;2173260;82;22113;-83
2021/11/23 05:54:37;;;;;;;15.75;9.43;;;;;;;1.53;100.00;99516.73;2173133;82;21020;-83
2021/11/23 05:57:37;;;;;;;15.18;9.90;;;;;;;1.47;100.00;99517.98;2173318;82;21013;-84
2021/11/23 06:00:38;;;;;;;12.68;10.25;;;;;;;1.36;100.00;99524.30;2173376;82;20981;-83
2021/11/23 06:03:39;;;;;;;20.43;11.35;;;;;;;1.29;100.00;99523.91;2173190;82;21017;-83
2021/11/23 06:06:40;;;;;;;22.87;12.53;;;;;;;1.25;100.00;99523.73;2173417;82;21510;-83
2021/11/23 06:09:41;;;;;;;13.93;9.70;;;;;;;1.23;100.00;99534.62;2173169;82;20993;-83
2021/11/23 06:12:42;;;;;;;14.13;9.53;;;;;;;1.17;100.00;99535.01;2173421;82;20993;-83
2021/11/23 06:15:45;;;;;;;16.05;9.50;;;;;;;1.11;100.00;99532.84;2173187;82;20977;-82
2021/11/23 06:18:45;;;;;;;12.30;8.60;;;;;;;1.12;100.00;99533.20;2168090;82;21143;-83
2021/11/23 06:21:46;;;;;;;12.33;9.33;;;;;;;1.13;100.00;99536.15;2136443;83;21583;-83
2021/11/23 06:24:46;;;;;;;15.70;9.48;;;;;;;1.14;100.00;99538.63;2181119;81;20978;-83
2021/11/23 06:27:47;;;;;;;15.78;9.55;;;;;;;1.15;100.00;99538.16;2181286;82;21009;-84
2021/11/23 06:30:48;;;;;;;13.18;8.73;;;;;;;1.13;100.00;99546.47;2183468;81;21067;-85
2021/11/23 06:33:53;;;;;;;13.80;8.73;;;;;;;1.10;100.00;99551.84;2143022;83;20937;-85
2021/11/23 06:36:52;;;;;;;13.98;8.53;;;;;;;1.12;100.00;99550.80;2142858;83;21040;-82
2021/11/23 06:39:52;;;;;;;15.60;9.73;;;;;;;1.19;100.00;99551.67;2143092;83;21016;-84
2021/11/23 06:42:53;;;;;;;12.28;8.25;;;;;;;1.27;100.00;99548.95;2137125;82;20932;-86
2021/11/23 06:45:55;;;;;;;11.90;7.97;;;;;;;1.34;100.00;99556.66;2142940;83;21039;-82
2021/11/23 06:48:56;;;;;;;13.10;8.58;;;;;;;1.43;100.00;99558.64;2142910;83;21079;-82
2021/11/23 06:51:57;;;;;;;9.68;6.95;;;;;;;1.55;100.00;99554.88;2143078;83;20995;-84
2021/11/23 06:54:58;;;;;;;18.35;9.70;;;;;;;1.54;100.00;99550.19;2142945;83;21349;-83
2021/11/23 06:57:58;;;;;;;11.53;7.90;;;;;;;1.58;100.00;99553.41;2142925;83;21008;-83
2021/11/23 07:00:59;;;;;;;12.73;8.15;;;;;;;1.63;100.00;99550.86;2143134;83;21424;-84
2021/11/23 07:04:01;;;;;;;14.35;9.83;;;;;;;1.65;100.00;99552.08;2143022;83;21032;-82
2021/11/23 07:07:02;;;;;;;13.22;8.75;;;;;;;1.63;100.00;99551.33;2142986;83;21539;-82
2021/11/23 07:10:11;;;;;;;12.98;7.80;;;;;;;1.63;100.00;99546.16;2143024;83;21068;-83
2021/11/23 07:13:12;;;;;;;;;;;;;;;1.64;100.00;99551.22;2146321;83;20989;-84
2021/11/23 07:16:13;;;;;;;15.18;11.10;;;;;;;1.67;100.00;99563.12;2120385;84;20149;-85
2021/11/23 07:19:14;;;;;;;13.05;8.45;;;;;;;1.67;100.00;99559.25;2105088;85;22095;-83
2021/11/23 07:22:15;;;;;;;81.67;44.45;;;;;;;1.68;100.00;99563.02;2105186;84;21016;-82
2021/11/23 07:25:15;;;;;;;59.88;34.38;;;;;;;1.71;100.00;99557.63;2105138;85;20989;-81
2021/11/23 07:28:17;;;;;;;49.55;23.83;;;;;;;1.78;100.00;99556.77;2105127;84;21010;-81
2021/11/23 07:31:18;;;;;;;167.70;67.03;;;;;;;1.84;100.00;99562.81;2102107;85;21017;-82
2021/11/23 07:34:20;;;;;;;237.48;79.47;;;;;;;1.89;100.00;99556.86;2181215;81;21065;-82
2021/11/23 07:37:21;;;;;;;271.45;86.75;;;;;;;1.91;100.00;99559.33;2181213;82;21065;-80
2021/11/23 07:40:22;;;;;;;215.72;64.40;;;;;;;1.96;100.00;99554.69;2181669;82;21005;-81
2021/11/23 07:43:23;;;;;;;135.72;41.28;;;;;;;2.06;100.00;99553.13;2181076;82;20989;-82
2021/11/23 07:46:25;;;;;;;35.20;13.30;;;;;;;2.14;100.00;99560.36;2181152;82;21567;-84
2021/11/23 07:49:26;;;;;;;23.05;10.25;;;;;;;2.23;100.00;99550.69;2181216;82;21018;-83
2021/11/23 07:52:27;;;;;;;21.82;11.22;;;;;;;2.31;100.00;99548.86;2181304;82;21013;-83
2021/11/23 07:55:28;;;;;;;44.60;22.17;;;;;;;2.40;100.00;99562.44;2181110;82;22064;-83
2021/11/23 07:58:28;;;;;;;24.52;12.28;;;;;;;2.44;100.00;99560.81;2181278;82;21013;-83
2021/11/23 08:01:30;;;;;;;29.55;11.60;;;;;;;2.48;100.00;99564.03;2180735;82;21021;-84
2021/11/23 08:04:31;;;;;;;14.15;7.53;;;;;;;2.54;100.00;99564.86;2181095;82;21488;-84
2021/11/23 08:07:31;;;;;;;15.10;7.92;;;;;;;2.58;100.00;99563.73;2136398;83;21453;-84
2021/11/23 08:10:32;;;;;;;11.90;7.42;;;;;;;2.55;100.00;99561.34;2181132;82;21041;-84
2021/11/23 08:13:33;;;;;;;12.37;6.12;;;;;;;2.63;100.00;99562.10;2181212;81;21014;-84
2021/11/23 08:16:34;;;;;;;8.60;6.22;;;;;;;2.74;100.00;99568.63;2181110;82;21009;-83
2021/11/23 08:19:35;;;;;;;13.58;9.38;;;;;;;2.84;100.00;99561.42;2136397;83;21507;-84
2021/11/23 08:22:36;;;;;;;33.67;19.45;;;;;;;2.85;100.00;99560.48;2181209;81;21061;-83
2021/11/23 08:25:40;;;;;;;19.07;8.83;;;;;;;2.85;100.00;99563.06;2181199;82;21013;-85
2021/11/23 08:28:42;;;;;;;18.17;7.92;;;;;;;2.83;100.00;99561.50;2136228;83;21049;-85
2021/11/23 08:31:43;;;;;;;8.78;5.22;;;;;;;2.81;100.00;99564.67;2135981;83;21048;-84
2021/11/23 08:34:44;;;;;;;12.45;6.87;;;;;;;2.80;100.00;99564.32;2181134;81;21592;-87
2021/11/23 08:37:45;;;;;;;9.43;6.50;;;;;;;2.75;100.00;99563.84;2181109;81;21032;-82
2021/11/23 08:40:45;;;;;;;9.25;5.72;;;;;;;2.79;100.00;99566.08;2181260;81;21539;-84
2021/11/23 08:43:46;;;;;;;9.23;5.85;;;;;;;2.92;100.00;99562.14;2181336;82;21302;-82
2021/11/23 08:46:47;;;;;;;13.50;8.45;;;;;;;3.04;100.00;99563.86;2180987;81;20989;-84
2021/11/23 08:49:48;;;;;;;9.73;6.42;;;;;;;3.11;100.00;99563.78;2181335;82;21009;-85
2021/11/23 08:52:49;;;;;;;7.15;5.20;;;;;;;3.14;100.00;99557.08;2181149;81;21001;-85
2021/11/23 08:55:50;;;;;;;13.55;5.45;;;;;;;3.14;100.00;99556.25;2181089;81;20992;-84
2021/11/23 08:58:53;;;;;;;10.25;6.10;;;;;;;3.19;100.00;99554.14;2181070;81;20986;-84
2021/11/23 09:01:53;;;;;;;8.75;5.15;;;;;;;3.30;100.00;99555.97;2181172;81;21089;-85
2021/11/23 09:04:54;;;;;;;8.73;5.75;;;;;;;3.40;100.00;99559.05;2181150;81;21073;-83
2021/11/23 09:07:59;;;;;;;8.05;5.87;;;;;;;3.46;100.00;99555.63;2181202;81;21438;-83
2021/11/23 09:10:57;;;;;;;8.10;5.05;;;;;;;3.47;100.00;99559.87;2180930;81;21070;-84
2021/11/23 09:13:58;;;;;;;14.35;5.55;;;;;;;3.52;100.00;99550.02;2181091;82;20985;-87
2021/11/23 09:16:59;;;;;;;11.18;7.10;;;;;;;3.59;100.00;99542.15;2180919;81;20974;-86
2021/11/23 09:20:00;;;;;;;11.40;5.75;;;;;;;3.61;100.00;99560.98;2180922;82;21066;-85
2021/11/23 09:23:01;;;;;;;11.08;6.55;;;;;;;3.68;100.00;99554.41;2180933;82;21041;-83
2021/11/23 09:26:02;;;;;;;7.67;5.00;;;;;;;3.78;100.00;99552.77;2181431;82;21060;-83
2021/11/23 09:29:05;;;;;;;8.68;5.05;;;;;;;3.89;100.00;99533.81;2180609;82;21754;-83
2021/11/23 09:32:07;;;;;;;6.37;4.58;;;;;;;3.98;100.00;99543.00;2175276;82;21069;-83
2021/11/23 09:35:10;;;;;;;8.53;4.60;;;;;;;4.07;100.00;99537.59;2126690;83;20997;-84
2021/11/23 09:38:10;;;;;;;11.03;4.37;;;;;;;4.16;100.00;99538.64;2126639;84;21013;-83
2021/11/23 09:41:11;;;;;;;4.83;4.28;;;;;;;4.31;100.00;99540.53;2171271;81;20970;-84
2021/11/23 09:44:12;;;;;;;7.45;5.53;;;;;;;4.46;100.00;99538.84;2126766;84;21037;-82
2021/11/23 09:47:14;;;;;;;6.87;5.12;;;;;;;4.53;100.00;99542.61;2171009;82;21002;-83
2021/11/23 09:50:16;;;;;;;8.95;5.28;;;;;;;4.61;100.00;99544.59;2126559;83;21545;-82
2021/11/23 09:53:18;;;;;;;5.12;4.17;;;;;;;4.66;100.00;99522.98;2171071;81;21064;-83
2021/11/23 09:56:19;;;;;;;5.90;4.58;;;;;;;4.70;100.00;99510.14;2126673;84;20977;-83
2021/11/23 09:59:20;;;;;;;8.55;4.47;;;;;;;4.75;100.00;99508.46;2171115;81;21013;-82
2021/11/23 10:02:22;;;;;;;5.90;3.90;;;;;;;4.77;100.00;99500.93;2126519;83;20994;-82
2021/11/23 10:05:23;;;;;;;7.22;4.40;;;;;;;4.82;100.00;99492.76;2171156;82;21077;-82
2021/11/23 10:08:24;;;;;;;6.67;4.03;;;;;;;4.80;100.00;99495.48;2126535;83;21318;-81
2021/11/23 10:11:25;;;;;;;10.03;6.85;;;;;;;4.86;100.00;99486.39;2171163;81;20975;-83
2021/11/23 10:14:26;;;;;;;7.87;4.72;;;;;;;4.93;100.00;99481.02;2126539;84;21373;-82
2021/11/23 10:17:28;;;;;;;10.98;4.85;;;;;;;4.99;100.00;99477.12;2171058;81;20978;-83
2021/11/23 10:20:29;;;;;;;8.95;4.10;;;;;;;5.05;100.00;99461.88;2126695;83;21008;-83
2021/11/23 10:23:29;;;;;;;8.28;4.45;;;;;;;5.08;100.00;99474.59;2171175;82;20974;-83
2021/11/23 10:26:30;;;;;;;5.20;3.60;;;;;;;5.08;100.00;99465.51;2126741;83;21033;-83
2021/11/23 10:29:31;;;;;;;9.48;4.83;;;;;;;5.08;100.00;99474.59;2171231;82;20994;-83
2021/11/23 10:32:32;;;;;;;5.22;3.65;;;;;;;5.06;100.00;99459.63;2132562;82;21040;-82
2021/11/23 10:35:33;;;;;;;8.70;5.25;;;;;;;5.07;100.00;99466.94;2181253;82;20951;-83
2021/11/23 10:38:34;;;;;;;5.80;4.08;;;;;;;5.07;100.00;99469.05;2181178;81;21273;-85
2021/11/23 10:41:35;;;;;;;10.88;7.20;;;;;;;5.08;100.00;99473.30;2136905;83;21030;-84
2021/11/23 10:44:36;;;;;;;26.93;5.53;;;;;;;5.08;100.00;99468.10;2181408;82;21002;-85
2021/11/23 10:47:37;;;;;;;5.78;4.33;;;;;;;5.03;100.00;99472.01;2181233;81;21009;-84
2021/11/23 10:50:38;;;;;;;4.70;3.58;;;;;;;4.97;100.00;99466.05;2182140;81;21042;-83
2021/11/23 10:53:42;;;;;;;6.17;3.62;;;;;;;4.94;100.00;99468.42;2182895;82;21450;-82
2021/11/23 10:56:42;;;;;;;5.40;2.98;;;;;;;4.97;100.00;99456.48;2183009;81;21013;-83
2021/11/23 10:59:43;;;;;;;4.60;3.42;;;;;;;5.00;100.00;99459.30;2181594;81;20995;-84
2021/11/23 11:02:44;;;;;;;4.55;4.10;;;;;;;5.02;100.00;99452.20;2181587;82;20962;-85
2021/11/23 11:05:45;;;;;;;3.58;3.25;;;;;;;5.07;100.00;99444.87;2181442;82;21025;-83
2021/11/23 11:08:46;;;;;;;5.17;3.47;;;;;;;5.09;100.00;99439.89;2181086;82;21025;-84
2021/11/23 11:11:46;;;;;;;8.98;4.10;;;;;;;5.10;100.00;99438.94;2181420;82;21005;-83
2021/11/23 11:14:47;;;;;;;5.22;3.58;;;;;;;5.13;100.00;99445.67;2181167;82;20997;-83
2021/11/23 11:17:48;;;;;;;6.47;3.00;;;;;;;5.19;100.00;99430.86;2181565;82;21009;-83
2021/11/23 11:20:53;;;;;;;4.55;3.25;;;;;;;5.26;100.00;99435.90;2181285;82;21005;-83
2021/11/23 11:23:56;;;;;;;4.40;3.22;;;;;;;5.33;100.00;99437.52;2135633;83;20961;-83
2021/11/23 11:27:01;;;;;;;5.92;3.85;;;;;;;5.35;100.00;99433.01;2136047;83;21644;-83
2021/11/23 11:29:57;;;;;;;7.08;2.95;;;;;;;5.30;100.00;99433.41;2135230;83;21493;-84
2021/11/23 11:33:00;;;;;;;6.47;3.50;;;;;;;5.25;100.00;99441.23;2185671;81;21033;-84
2021/11/23 11:36:01;;;;;;;5.30;3.65;;;;;;;5.14;100.00;99442.13;2187813;81;21021;-84
2021/11/23 11:39:01;;;;;;;8.58;3.90;;;;;;;4.97;100.00;99444.80;2143030;83;21033;-84
2021/11/23 11:42:02;;;;;;;5.78;3.55;;;;;;;4.88;100.00;99452.05;2143068;83;21052;-84
2021/11/23 11:45:03;;;;;;;4.53;3.02;;;;;;;4.73;100.00;99454.58;2143142;83;20973;-83
2021/11/23 11:48:04;;;;;;;5.35;2.75;;;;;;;4.64;100.00;99444.95;2143073;83;21012;-83
2021/11/23 11:51:05;;;;;;;6.05;3.67;;;;;;;4.56;100.00;99450.27;2143244;83;20977;-84
2021/11/23 11:54:06;;;;;;;5.95;3.52;;;;;;;4.50;100.00;99450.79;2143201;83;21582;-84
2021/11/23 11:57:07;;;;;;;8.65;3.35;;;;;;;4.46;100.00;99439.00;2143134;83;20960;-84
2021/11/23 12:00:08;;;;;;;9.83;4.83;;;;;;;4.41;100.00;99441.62;2143069;83;20981;-83
2021/11/23 12:03:08;;;;;;;5.42;3.90;;;;;;;4.36;100.00;99446.34;2143030;83;21055;-84
2021/11/23 12:06:09;;;;;;;8.58;4.00;;;;;;;4.33;100.00;99440.11;2142989;83;21063;-83
2021/11/23 12:09:10;;;;;;;8.73;3.65;;;;;;;4.31;100.00;99425.16;2143337;83;21019;-83
2021/11/23 12:12:11;;;;;;;7.67;3.98;;;;;;;4.34;100.00;99430.09;2143150;83;20969;-84
2021/11/23 12:15:12;;;;;;;7.95;3.70;;;;;;;4.36;100.00;99436.79;2143074;83;21028;-83
2021/11/23 12:18:13;;;;;;;7.12;3.45;;;;;;;4.41;100.00;99434.66;2143036;83;20921;-83
2021/11/23 12:21:14;;;;;;;7.85;3.85;;;;;;;4.42;100.00;99431.59;2142869;83;21027;-88
2021/11/23 12:24:14;;;;;;;30.88;10.85;;;;;;;4.40;100.00;99428.31;2143628;83;20980;-84
2021/11/23 12:27:15;;;;;;;8.50;4.25;;;;;;;4.38;100.00;99436.66;2120529;84;20999;-83
2021/11/23 12:30:16;;;;;;;7.17;3.83;;;;;;;4.45;100.00;99430.05;2121561;84;21578;-84
2021/11/23 12:33:17;;;;;;;7.80;3.92;;;;;;;4.47;100.00;99436.75;2113975;84;21022;-84
2021/11/23 12:36:19;;;;;;;6.08;4.00;;;;;;;4.47;100.00;99445.00;2110421;84;21014;-83
2021/11/23 12:39:20;;;;;;;7.78;4.83;;;;;;;4.48;100.00;99441.45;2110032;84;20963;-81
2021/11/23 12:42:21;;;;;;;5.53;3.83;;;;;;;4.48;100.00;99446.65;2110445;84;21050;-81
2021/11/23 12:45:22;;;;;;;7.42;3.60;;;;;;;4.41;100.00;99437.73;2110207;84;21578;-86
2021/11/23 12:48:22;;;;;;;8.50;4.05;;;;;;;4.39;100.00;99443.49;2110408;84;21065;-85
2021/11/23 12:51:23;;;;;;;10.53;3.95;;;;;;;4.38;100.00;99440.55;2110381;84;20939;-83
2021/11/23 12:54:24;;;;;;;8.18;4.28;;;;;;;4.34;100.00;99444.34;2110365;84;20998;-80
2021/11/23 12:57:25;;;;;;;6.50;4.05;;;;;;;4.26;100.00;99456.14;2110240;84;21510;-82
2021/11/23 13:00:26;;;;;;;9.63;5.03;;;;;;;4.23;100.00;99460.76;2110165;84;21017;-82
2021/11/23 13:03:27;;;;;;;9.45;5.28;;;;;;;4.22;100.00;99462.53;2110098;84;21001;-81
2021/11/23 13:06:28;;;;;;;9.50;4.70;;;;;;;4.22;100.00;99462.53;2109937;84;21046;-81
2021/11/23 13:09:28;;;;;;;9.15;4.90;;;;;;;4.24;100.00;99458.04;2110059;84;21576;-82
2021/11/23 13:12:29;;;;;;;6.97;4.50;;;;;;;4.16;100.00;99463.48;2110104;84;20970;-81
2021/11/23 13:15:30;;;;;;;10.25;5.42;;;;;;;4.11;100.00;99463.82;2110026;84;21049;-86
2021/11/23 13:18:31;;;;;;;8.23;5.42;;;;;;;4.07;100.00;99449.47;2133228;83;21064;-87
2021/11/23 13:21:32;;;;;;;11.43;7.75;;;;;;;4.07;100.00;99462.42;2133210;83;21056;-86
2021/11/23 13:24:33;;;;;;;10.15;5.83;;;;;;;4.07;100.00;99470.20;2133243;83;21048;-89
2021/11/23 13:27:33;;;;;;;16.07;7.72;;;;;;;4.07;100.00;99465.02;2133166;83;21080;-84
2021/11/23 13:30:34;;;;;;;10.03;6.47;;;;;;;4.09;100.00;99466.19;2133385;83;21020;-89
2021/11/23 13:33:36;;;;;;;10.18;5.85;;;;;;;4.03;100.00;99468.80;2133338;83;21029;-85
2021/11/23 13:36:39;;;;;;;10.00;5.78;;;;;;;4.04;100.00;99466.56;2133456;83;21004;-85
2021/11/23 13:39:40;;;;;;;17.42;9.55;;;;;;;4.03;100.00;99466.22;2133476;83;21005;-84
2021/11/23 13:42:41;;;;;;;20.00;10.40;;;;;;;3.97;100.00;99470.09;2133225;83;21480;-85
2021/11/23 13:45:42;;;;;;;14.65;8.68;;;;;;;3.93;100.00;99467.41;2133113;83;21041;-85
2021/11/23 13:48:42;;;;;;;9.40;6.85;;;;;;;3.93;100.00;99467.84;2133305;83;21064;-84
2021/11/23 13:51:43;;;;;;;14.63;8.43;;;;;;;3.93;100.00;99476.47;2134447;83;20949;-86
2021/11/23 13:54:44;;;;;;;14.47;6.50;;;;;;;3.90;100.00;99475.39;2134465;83;21089;-85
2021/11/23 13:57:45;;;;;;;11.70;7.20;;;;;;;3.89;100.00;99475.52;2134074;83;21073;-85
2021/11/23 14:00:46;;;;;;;18.98;10.45;;;;;;;3.91;100.00;99471.86;2133621;83;21041;-85